createdAt,value
2023-04-20T00:01:10.678Z,101387.88
2023-04-20T00:03:36.966Z,101388.06
2023-04-20T00:06:03.512Z,101437.44
2023-04-20T00:08:30.153Z,101470.72
2023-04-20T00:10:56.387Z,101471.31
2023-04-20T00:13:22.603Z,101474.09
2023-04-20T00:15:48.982Z,101456.75
2023-04-20T00:18:15.268Z,101481.88
2023-04-20T00:20:41.482Z,101463.78
2023-04-20T00:23:07.767Z,101451.31
2023-04-20T00:25:33.989Z,101475.47
2023-04-20T00:28:00.224Z,101490.66
2023-04-20T00:30:26.431Z,101491.22
2023-04-20T00:32:52.769Z,101519.91
2023-04-20T00:35:19.057Z,101530.34
2023-04-20T00:37:45.285Z,101559.78
2023-04-20T00:40:11.588Z,101592.03
2023-04-20T00:42:37.794Z,101602.84
2023-04-20T00:45:04.148Z,101612.16
2023-04-20T00:47:30.422Z,101597.41
2023-04-20T00:49:56.657Z,101624.50
2023-04-20T00:52:22.872Z,101619.19
2023-04-20T00:54:49.135Z,101595.66
2023-04-20T00:57:15.369Z,101598.66
2023-04-20T00:59:41.584Z,101591.84
2023-04-20T01:02:07.886Z,101589.25
2023-04-20T01:04:34.684Z,101594.25
2023-04-20T01:07:00.934Z,101588.69
2023-04-20T01:09:27.135Z,101582.78
2023-04-20T01:12:00.778Z,101575.03
2023-04-20T01:14:27.093Z,101564.28
2023-04-20T01:16:53.305Z,101559.91
2023-04-20T01:19:19.659Z,101608.28
2023-04-20T01:21:45.984Z,101613.53
2023-04-20T01:24:12.219Z,101617.19
2023-04-20T01:26:38.464Z,101608.41
2023-04-20T01:29:04.693Z,101593.47
2023-04-20T01:31:30.948Z,101600.25
2023-04-20T01:33:57.218Z,101600.44
2023-04-20T01:36:23.672Z,101609.47
2023-04-20T01:38:49.921Z,101594.09
2023-04-20T01:41:16.132Z,101601.63
2023-04-20T01:43:42.364Z,101610.44
2023-04-20T01:46:08.602Z,101626.75
2023-04-20T01:48:34.821Z,101639.28
2023-04-20T01:51:01.041Z,101651.63
2023-04-20T01:53:27.255Z,101662.78
2023-04-20T01:55:53.594Z,101656.00
2023-04-20T01:58:19.831Z,101667.34
2023-04-20T02:00:46.115Z,101679.69
2023-04-20T02:03:12.597Z,101675.75
2023-04-20T02:05:39.058Z,101660.44
2023-04-20T02:08:05.284Z,101648.41
2023-04-20T02:10:31.505Z,101657.34
2023-04-20T02:12:57.742Z,101658.53
2023-04-20T02:15:23.948Z,101664.25
2023-04-20T02:17:50.222Z,101665.22
2023-04-20T02:20:16.451Z,101665.84
2023-04-20T02:22:42.660Z,101697.69
2023-04-20T02:25:09.072Z,101722.19
2023-04-20T02:27:35.276Z,101727.19
2023-04-20T02:30:01.489Z,101726.06
2023-04-20T02:32:27.808Z,101725.47
2023-04-20T02:34:54.081Z,101722.69
2023-04-20T02:37:20.299Z,101714.75
2023-04-20T02:39:46.506Z,101719.75
2023-04-20T02:42:12.706Z,101718.78
2023-04-20T02:44:38.913Z,101711.81
2023-04-20T02:47:05.148Z,101706.25
2023-04-20T02:49:31.364Z,101693.66
2023-04-20T02:51:57.559Z,101694.84
2023-04-20T02:54:23.763Z,101699.34
2023-04-20T02:56:49.968Z,101689.19
2023-04-20T02:59:16.390Z,101689.00
2023-04-20T03:01:42.794Z,101694.75
2023-04-20T03:04:09.134Z,101691.16
2023-04-20T03:06:36.250Z,101681.78
2023-04-20T03:09:03.243Z,101665.63
2023-04-20T03:11:29.448Z,101655.25
2023-04-20T03:13:55.681Z,101642.66
2023-04-20T03:16:21.938Z,101632.91
2023-04-20T03:18:48.156Z,101619.16
2023-04-20T03:21:14.359Z,101610.41
2023-04-20T03:23:40.579Z,101600.66
2023-04-20T03:26:06.796Z,101583.94
2023-04-20T03:28:33.013Z,101574.50
2023-04-20T03:30:59.277Z,101578.13
2023-04-20T03:33:25.508Z,101561.25
2023-04-20T03:35:51.717Z,101552.84
2023-04-20T03:38:17.926Z,101537.91
2023-04-20T03:40:44.618Z,101531.56
2023-04-20T03:43:10.846Z,101513.06
2023-04-20T03:45:37.158Z,101507.69
2023-04-20T03:48:03.550Z,101487.66
2023-04-20T03:50:29.933Z,101493.31
2023-04-20T03:52:56.169Z,101487.75
2023-04-20T03:55:22.386Z,101482.56
2023-04-20T03:57:48.594Z,101487.13
2023-04-20T04:00:14.894Z,101479.09
2023-04-20T04:02:41.198Z,101475.34
2023-04-20T04:05:07.675Z,101481.97
2023-04-20T04:07:33.901Z,101473.13
2023-04-20T04:10:00.115Z,101462.09
2023-04-20T04:12:26.354Z,101470.84
2023-04-20T04:14:52.584Z,101459.50
2023-04-20T04:17:18.878Z,101457.28
2023-04-20T04:19:45.201Z,101453.25
2023-04-20T04:22:11.403Z,101438.78
2023-04-20T04:24:37.613Z,101434.13
2023-04-20T04:27:03.870Z,101423.56
2023-04-20T04:29:31.792Z,101415.41
2023-04-20T04:31:58.020Z,101392.91
2023-04-20T04:34:24.231Z,101380.50
2023-04-20T04:36:50.461Z,101367.75
2023-04-20T04:39:16.975Z,101365.38
2023-04-20T04:41:43.303Z,101349.63
2023-04-20T04:44:09.817Z,101338.69
2023-04-20T04:46:36.075Z,101314.97
2023-04-20T04:49:02.414Z,101308.81
2023-04-20T04:51:28.669Z,101303.06
2023-04-20T04:53:54.917Z,101297.69
2023-04-20T04:56:21.364Z,101281.34
2023-04-20T04:58:47.560Z,101277.78
2023-04-20T05:01:13.775Z,101276.78
2023-04-20T05:03:40.064Z,101264.59
2023-04-20T05:06:06.444Z,101255.03
2023-04-20T05:08:33.154Z,101241.28
2023-04-20T05:10:59.581Z,101239.84
2023-04-20T05:13:25.875Z,101239.66
2023-04-20T05:15:52.147Z,101236.69
2023-04-20T05:18:18.367Z,101233.53
2023-04-20T05:20:44.597Z,101224.78
2023-04-20T05:23:11.127Z,101215.81
2023-04-20T05:25:37.344Z,101209.03
2023-04-20T05:28:03.563Z,101204.66
2023-04-20T05:30:29.771Z,101202.28
2023-04-20T05:32:56.078Z,101192.72
2023-04-20T05:35:22.389Z,101197.94
2023-04-20T05:37:48.611Z,101193.53
2023-04-20T05:40:14.888Z,101189.31
2023-04-20T05:42:41.096Z,101194.31
2023-04-20T05:45:07.686Z,101184.56
2023-04-20T05:47:33.951Z,101191.56
2023-04-20T05:50:00.234Z,101177.78
2023-04-20T05:52:26.463Z,101179.59
2023-04-20T05:54:52.668Z,101170.59
2023-04-20T05:57:18.861Z,101178.38
2023-04-20T05:59:45.086Z,101161.44
2023-04-20T06:02:11.384Z,101152.47
2023-04-20T06:04:37.880Z,101144.31
2023-04-20T06:07:04.406Z,101146.69
2023-04-20T06:09:30.609Z,101151.84
2023-04-20T06:11:56.832Z,101139.31
2023-04-20T06:14:23.039Z,101138.94
2023-04-20T06:16:49.244Z,101122.38
2023-04-20T06:19:15.683Z,101119.78
2023-04-20T06:21:42.170Z,101104.00
2023-04-20T06:24:08.441Z,101096.06
2023-04-20T06:26:34.647Z,101095.47
2023-04-20T06:29:00.836Z,101080.53
2023-04-20T06:31:27.080Z,101077.53
2023-04-20T06:33:53.314Z,101082.72
2023-04-20T06:36:19.539Z,101071.97
2023-04-20T06:38:45.749Z,101082.75
2023-04-20T06:41:11.966Z,101074.97
2023-04-20T06:43:38.178Z,101077.56
2023-04-20T06:46:04.381Z,101071.56
2023-04-20T06:48:32.673Z,101071.56
2023-04-20T06:50:59.504Z,101067.00
2023-04-20T06:53:25.740Z,101066.19
2023-04-20T06:55:53.637Z,101070.16
2023-04-20T06:58:19.839Z,101076.16
2023-04-20T07:00:46.085Z,101068.19
2023-04-20T07:03:12.441Z,101063.59
2023-04-20T07:05:38.756Z,101073.97
2023-04-20T07:08:04.998Z,101070.72
2023-04-20T07:10:31.210Z,101073.31
2023-04-20T07:12:57.422Z,101078.94
2023-04-20T07:15:23.734Z,101084.06
2023-04-20T07:17:50.027Z,101098.63
2023-04-20T07:20:16.285Z,101077.88
2023-04-20T07:22:42.607Z,101089.06
2023-04-20T07:25:09.000Z,101095.44
2023-04-20T07:27:35.732Z,101079.44
2023-04-20T07:30:02.004Z,101086.44
2023-04-20T07:32:28.355Z,101098.41
2023-04-20T07:34:54.602Z,101094.22
2023-04-20T07:37:20.818Z,101102.16
2023-04-20T07:39:47.042Z,101100.19
2023-04-20T07:42:13.252Z,101099.13
2023-04-20T07:44:39.493Z,101109.09
2023-04-20T07:47:05.687Z,101119.88
2023-04-20T07:49:31.915Z,101124.84
2023-04-20T07:52:09.278Z,101129.34
2023-04-20T07:54:41.720Z,101146.75
2023-04-20T07:57:07.964Z,101152.09
2023-04-20T07:59:34.170Z,101157.09
2023-04-20T08:02:01.058Z,101152.31
2023-04-20T08:04:27.758Z,101163.44
2023-04-20T08:06:54.128Z,101164.00
2023-04-20T08:09:20.371Z,101164.06
2023-04-20T08:11:46.630Z,101179.56
2023-04-20T08:14:13.041Z,101176.53
2023-04-20T08:16:40.062Z,101183.84
2023-04-20T08:19:06.504Z,101191.84
2023-04-20T08:21:32.738Z,101188.31
2023-04-20T08:23:58.965Z,101193.88
2023-04-20T08:26:25.195Z,101188.44
2023-04-20T08:28:51.420Z,101189.03
2023-04-20T08:31:17.685Z,101189.59
2023-04-20T08:33:43.932Z,101213.56
2023-04-20T08:36:10.182Z,101210.06
2023-04-20T08:38:36.435Z,101215.94
2023-04-20T08:41:02.693Z,101219.50
2023-04-20T08:43:29.110Z,101222.91
2023-04-20T08:45:58.656Z,101221.91
2023-04-20T08:48:24.974Z,101224.97
2023-04-20T08:50:51.197Z,101211.69
2023-04-20T08:53:17.395Z,101214.59
2023-04-20T08:55:43.594Z,101218.22
2023-04-20T08:58:09.792Z,101220.25
2023-04-20T09:00:45.262Z,101218.19
2023-04-20T09:03:11.630Z,101216.31
2023-04-20T09:05:37.936Z,101210.13
2023-04-20T09:08:04.213Z,101201.97
2023-04-20T09:10:38.781Z,101189.28
2023-04-20T09:13:05.247Z,101202.94
2023-04-20T09:15:31.645Z,101212.50
2023-04-20T09:17:57.910Z,101187.16
2023-04-20T09:20:31.048Z,101182.00
2023-04-20T09:22:57.278Z,101175.66
2023-04-20T09:25:23.607Z,101120.78
2023-04-20T09:27:56.561Z,101064.00
2023-04-20T09:30:22.906Z,101027.69
2023-04-20T09:32:49.213Z,101034.03
2023-04-20T09:35:22.553Z,101101.59
2023-04-20T09:37:48.763Z,101158.03
2023-04-20T09:40:14.991Z,101144.78
2023-04-20T09:42:41.203Z,101138.97
2023-04-20T09:45:07.790Z,101046.84
2023-04-20T09:47:34.942Z,101045.63
2023-04-20T09:50:10.247Z,101070.44
2023-04-20T09:52:45.982Z,101139.31
2023-04-20T09:55:12.201Z,101150.34
2023-04-20T09:57:38.585Z,101157.25
2023-04-20T10:00:05.897Z,101144.69
2023-04-20T10:02:32.256Z,101148.72
2023-04-20T10:04:58.611Z,101163.28
2023-04-20T10:07:25.237Z,101122.03
2023-04-20T10:10:01.964Z,101179.06
2023-04-20T10:12:28.165Z,101231.59
2023-04-20T10:14:57.453Z,101247.09
2023-04-20T10:17:30.386Z,101173.81
2023-04-20T10:19:56.629Z,101117.41
2023-04-20T10:22:26.592Z,101058.50
2023-04-20T10:24:52.822Z,101082.88
2023-04-20T10:27:19.304Z,101046.72
2023-04-20T10:29:45.528Z,101011.25
2023-04-20T10:32:21.428Z,100971.19
2023-04-20T10:34:47.656Z,100919.66
2023-04-20T10:37:14.044Z,100938.72
2023-04-20T10:39:43.920Z,100816.13
2023-04-20T10:42:10.135Z,100893.03
2023-04-20T10:44:36.350Z,100956.38
2023-04-20T10:47:03.800Z,100962.25
2023-04-20T10:49:30.020Z,100904.97
2023-04-20T10:51:56.300Z,100681.25
2023-04-20T10:54:22.549Z,100663.09
2023-04-20T10:56:49.533Z,100601.19
2023-04-20T10:59:16.570Z,100640.56
2023-04-20T11:01:43.002Z,100622.47
2023-04-20T11:04:09.500Z,100615.81
2023-04-20T11:06:35.832Z,100587.44
2023-04-20T11:09:02.160Z,100741.44
2023-04-20T11:11:28.634Z,100801.41
2023-04-20T11:14:10.454Z,100922.53
2023-04-20T11:16:49.184Z,100907.53
2023-04-20T11:19:22.244Z,100809.25
2023-04-20T11:21:48.476Z,100776.72
2023-04-20T11:24:18.219Z,100850.28
2023-04-20T11:26:44.421Z,100848.44
2023-04-20T11:29:10.627Z,100753.34
2023-04-20T11:31:36.903Z,100861.81
2023-04-20T11:34:05.334Z,100823.69
2023-04-20T11:36:32.941Z,100947.19
2023-04-20T11:39:08.399Z,100760.09
2023-04-20T11:44:14.856Z,100835.06
2023-04-20T11:46:41.071Z,100707.47
2023-04-20T11:49:07.285Z,100654.84
2023-04-20T11:51:33.503Z,100712.47
2023-04-20T11:53:59.708Z,100732.53
2023-04-20T11:56:25.918Z,100648.78
2023-04-20T11:58:52.109Z,100565.34
2023-04-20T12:01:18.315Z,100610.56
2023-04-20T12:03:47.496Z,100563.59
2023-04-20T12:06:14.175Z,100572.16
2023-04-20T12:08:40.387Z,100660.59
2023-04-20T12:11:06.601Z,100611.28
2023-04-20T12:13:32.826Z,100579.81
2023-04-20T12:15:59.095Z,100499.31
2023-04-20T12:18:25.376Z,100561.59
2023-04-20T12:20:51.606Z,100643.34
2023-04-20T12:23:17.800Z,100691.75
2023-04-20T12:25:44.018Z,100802.72
2023-04-20T12:28:10.224Z,100876.03
2023-04-20T12:30:36.443Z,100962.66
2023-04-20T12:33:03.039Z,100955.16
2023-04-20T12:35:29.420Z,100981.94
2023-04-20T12:37:55.640Z,101123.16
2023-04-20T12:40:22.163Z,101004.31
2023-04-20T12:42:48.425Z,100855.97
2023-04-20T12:45:14.658Z,100939.59
2023-04-20T12:47:40.892Z,100985.66
2023-04-20T12:50:07.340Z,100817.91
2023-04-20T12:52:33.754Z,100937.25
2023-04-20T12:55:00.025Z,100940.16
2023-04-20T12:57:26.234Z,100894.91
2023-04-20T12:59:52.458Z,100890.16
2023-04-20T13:02:18.839Z,100884.94
2023-04-20T13:04:45.217Z,100817.63
2023-04-20T13:07:11.432Z,100848.09
2023-04-20T13:09:37.697Z,100730.94
2023-04-20T13:12:04.143Z,100835.72
2023-04-20T13:14:30.698Z,100726.56
2023-04-20T13:16:57.010Z,100642.22
2023-04-20T13:19:23.400Z,100630.47
2023-04-20T13:21:49.626Z,100706.56
2023-04-20T13:24:16.156Z,100699.81
2023-04-20T13:26:42.573Z,100451.13
2023-04-20T13:29:08.799Z,100543.09
2023-04-20T13:31:35.024Z,100421.06
2023-04-20T13:34:01.270Z,100480.91
2023-04-20T13:36:27.488Z,100434.28
2023-04-20T13:38:53.905Z,100367.75
2023-04-20T13:41:20.123Z,100430.75
2023-04-20T13:43:46.338Z,100338.31
2023-04-20T13:46:12.566Z,100266.81
2023-04-20T13:48:38.768Z,100294.69
2023-04-20T13:51:05.121Z,99935.47
2023-04-20T13:53:31.343Z,99780.06
2023-04-20T13:55:57.593Z,99911.69
2023-04-20T13:58:23.804Z,99882.34
2023-04-20T14:00:50.208Z,99952.81
2023-04-20T14:03:16.676Z,100090.63
2023-04-20T14:05:43.040Z,99806.72
2023-04-20T14:08:09.234Z,99768.88
2023-04-20T14:10:35.436Z,99592.91
2023-04-20T14:13:01.696Z,99740.94
2023-04-20T14:15:27.944Z,99736.28
2023-04-20T14:17:54.203Z,99775.13
2023-04-20T14:20:20.444Z,99744.47
2023-04-20T14:22:46.654Z,99685.69
2023-04-20T14:25:12.886Z,99681.25
2023-04-20T14:27:39.094Z,99667.69
2023-04-20T14:30:05.589Z,99682.28
2023-04-20T14:32:33.826Z,99717.31
2023-04-20T14:35:00.019Z,99908.34
2023-04-20T14:37:26.237Z,99901.13
2023-04-20T14:39:52.639Z,100034.88
2023-04-20T14:42:21.023Z,100001.72
2023-04-20T14:44:47.227Z,100104.63
2023-04-20T14:47:13.427Z,100262.53
2023-04-20T14:49:39.630Z,100174.03
2023-04-20T14:52:05.848Z,100138.94
2023-04-20T14:54:32.047Z,100148.81
2023-04-20T14:56:58.291Z,100250.72
2023-04-20T14:59:24.508Z,100177.72
2023-04-20T15:02:01.857Z,100293.22
2023-04-20T15:04:29.677Z,100270.97
2023-04-20T15:06:56.013Z,100257.03
2023-04-20T15:09:22.209Z,100219.84
2023-04-20T15:11:48.420Z,100266.53
2023-04-20T15:14:14.696Z,100299.19
2023-04-20T15:16:41.042Z,100265.47
2023-04-20T15:19:07.276Z,100121.91
2023-04-20T15:21:33.499Z,100275.22
2023-04-20T15:23:59.707Z,100260.84
2023-04-20T15:26:25.920Z,100243.94
2023-04-20T15:28:52.120Z,100288.34
2023-04-20T15:31:18.336Z,100316.59
2023-04-20T15:33:45.016Z,100331.84
2023-04-20T15:36:11.222Z,100399.34
2023-04-20T15:38:37.425Z,100414.84
2023-04-20T15:41:03.648Z,100424.84
2023-04-20T15:43:29.855Z,100388.59
2023-04-20T15:45:56.175Z,100509.69
2023-04-20T15:48:22.442Z,100451.41
2023-04-20T15:50:51.577Z,100543.50
2023-04-20T15:53:18.010Z,100541.44
2023-04-20T15:55:44.211Z,100528.31
2023-04-20T15:58:10.420Z,100403.47
2023-04-20T16:00:36.654Z,100477.28
2023-04-20T16:03:03.035Z,100424.72
2023-04-20T16:05:29.427Z,100432.91
2023-04-20T16:07:55.638Z,100487.50
2023-04-20T16:10:21.857Z,100510.28
2023-04-20T16:12:48.064Z,100527.56
2023-04-20T16:15:14.334Z,100414.22
2023-04-20T16:17:40.627Z,100411.34
2023-04-20T16:20:07.243Z,100442.34
2023-04-20T16:22:33.456Z,100371.50
2023-04-20T16:24:59.664Z,100480.94
2023-04-20T16:27:25.883Z,100420.34
2023-04-20T16:29:52.088Z,100432.75
2023-04-20T16:32:18.282Z,100424.13
2023-04-20T16:34:44.495Z,100444.06
2023-04-20T16:37:10.719Z,100465.56
2023-04-20T16:39:36.934Z,100429.91
2023-04-20T16:42:03.165Z,100527.69
2023-04-20T16:44:29.361Z,100574.56
2023-04-20T16:46:55.734Z,100603.16
2023-04-20T16:49:21.985Z,100636.13
2023-04-20T16:51:48.196Z,100672.06
2023-04-20T16:54:14.407Z,100571.19
2023-04-20T16:56:40.688Z,100539.47
2023-04-20T16:59:06.916Z,100599.59
2023-04-20T17:01:33.194Z,100648.13
2023-04-20T17:03:59.743Z,100636.06
2023-04-20T17:06:26.082Z,100604.16
2023-04-20T17:08:52.318Z,100571.38
2023-04-20T17:11:18.534Z,100597.41
2023-04-20T17:13:44.766Z,100707.88
2023-04-20T17:16:11.059Z,100765.97
2023-04-20T17:18:38.011Z,100819.88
2023-04-20T17:21:05.397Z,100898.69
2023-04-20T17:23:34.603Z,100922.75
2023-04-20T17:26:00.834Z,100913.41
2023-04-20T17:28:27.079Z,100923.84
2023-04-20T17:30:53.278Z,100991.06
2023-04-20T17:33:19.490Z,101043.56
2023-04-20T17:35:45.714Z,101015.25
2023-04-20T17:38:11.964Z,100995.78
2023-04-20T17:40:38.210Z,101052.91
2023-04-20T17:43:04.421Z,101002.19
2023-04-20T17:45:30.623Z,100997.25
2023-04-20T17:47:56.855Z,101060.97
2023-04-20T17:50:23.136Z,101105.53
2023-04-20T17:52:49.357Z,101183.25
2023-04-20T17:55:15.599Z,101233.16
2023-04-20T17:57:41.823Z,101214.97
2023-04-20T18:00:08.312Z,101239.25
2023-04-20T18:02:35.255Z,101255.16
2023-04-20T18:05:01.536Z,101258.56
2023-04-20T18:07:27.766Z,101341.09
2023-04-20T18:09:53.997Z,101366.34
2023-04-20T18:12:20.208Z,101429.84
2023-04-20T18:14:46.440Z,101459.03
2023-04-20T18:17:12.681Z,101434.38
2023-04-20T18:19:38.928Z,101431.66
2023-04-20T18:22:05.152Z,101452.84
2023-04-20T18:24:31.358Z,101482.84
2023-04-20T18:26:57.569Z,101478.34
2023-04-20T18:29:23.775Z,101480.81
2023-04-20T18:31:50.116Z,101465.41
2023-04-20T18:34:16.710Z,101470.63
2023-04-20T18:36:43.024Z,101491.78
2023-04-20T18:39:09.218Z,101480.16
2023-04-20T18:41:35.732Z,101489.03
2023-04-20T18:44:01.969Z,101494.16
2023-04-20T18:46:28.236Z,101511.66
2023-04-20T18:48:54.457Z,101520.50
2023-04-20T18:51:20.673Z,101523.91
2023-04-20T18:53:46.879Z,101515.72
2023-04-20T18:56:13.091Z,101521.00
2023-04-20T18:58:39.355Z,101524.41
2023-04-20T19:01:05.603Z,101515.97
2023-04-20T19:03:32.000Z,101492.53
2023-04-20T19:05:58.379Z,101489.56
2023-04-20T19:08:24.596Z,101509.09
2023-04-20T19:10:50.862Z,101528.94
2023-04-20T19:13:17.076Z,101540.16
2023-04-20T19:15:43.916Z,101540.56
2023-04-20T19:18:10.729Z,101556.44
2023-04-20T19:20:36.960Z,101564.63
2023-04-20T19:23:10.609Z,101563.22
2023-04-20T19:25:38.661Z,101567.44
2023-04-20T19:28:05.055Z,101564.63
2023-04-20T19:30:31.326Z,101548.03
2023-04-20T19:32:57.584Z,101551.03
2023-04-20T19:35:23.876Z,101543.22
2023-04-20T19:37:50.074Z,101528.25
2023-04-20T19:40:16.277Z,101541.44
2023-04-20T19:42:42.546Z,101559.44
2023-04-20T19:45:08.811Z,101563.66
2023-04-20T19:47:35.494Z,101560.25
2023-04-20T19:50:03.614Z,101564.84
2023-04-20T19:52:35.835Z,101581.44
2023-04-20T19:55:03.806Z,101571.81
2023-04-20T19:57:30.663Z,101555.81
2023-04-20T19:59:56.873Z,101569.25
2023-04-20T20:02:23.187Z,101569.00
2023-04-20T20:04:49.549Z,101569.63
2023-04-20T20:07:15.844Z,101555.41
2023-04-20T20:09:42.059Z,101552.44
2023-04-20T20:12:08.292Z,101548.03
2023-04-20T20:14:35.933Z,101541.38
2023-04-20T20:17:03.832Z,101542.59
2023-04-20T20:19:30.058Z,101542.81
2023-04-20T20:21:56.280Z,101536.56
2023-04-20T20:24:22.499Z,101546.97
2023-04-20T20:26:48.987Z,101548.94
2023-04-20T20:29:15.182Z,101532.16
2023-04-20T20:31:41.460Z,101525.16
2023-04-20T20:34:09.203Z,101527.56
2023-04-20T20:36:35.618Z,101534.94
2023-04-20T20:39:01.813Z,101522.75
2023-04-20T20:41:28.010Z,101520.53
2023-04-20T20:43:54.325Z,101514.53
2023-04-20T20:46:20.641Z,101511.31
2023-04-20T20:48:46.867Z,101508.69
2023-04-20T20:51:13.068Z,101526.69
2023-04-20T20:53:39.754Z,101512.69
2023-04-20T20:56:07.544Z,101520.53
2023-04-20T20:58:33.797Z,101494.38
2023-04-20T21:01:00.046Z,101490.38
2023-04-20T21:03:29.459Z,101477.97
2023-04-20T21:05:56.545Z,101479.78
2023-04-20T21:08:22.814Z,101470.16
2023-04-20T21:10:49.404Z,101470.56
2023-04-20T21:13:16.024Z,101478.34
2023-04-20T21:15:42.343Z,101471.94
2023-04-20T21:18:08.855Z,101480.94
2023-04-20T21:20:35.185Z,101475.53
2023-04-20T21:23:01.432Z,101487.78
2023-04-20T21:25:27.683Z,101464.56
2023-04-20T21:27:54.025Z,101456.78
2023-04-20T21:30:20.253Z,101467.72
2023-04-20T21:32:46.496Z,101470.53
2023-04-20T21:35:12.894Z,101464.56
2023-04-20T21:37:39.199Z,101459.13
2023-04-20T21:40:05.868Z,101468.69
2023-04-20T21:42:32.088Z,101464.31
2023-04-20T21:44:58.522Z,101463.72
2023-04-20T21:47:24.927Z,101470.63
2023-04-20T21:49:51.151Z,101475.84
2023-04-20T21:52:18.110Z,101479.16
2023-04-20T21:54:44.353Z,101485.94
2023-04-20T21:57:10.592Z,101486.53
2023-04-20T21:59:36.832Z,101481.09
2023-04-20T22:02:03.444Z,101479.97
2023-04-20T22:04:30.168Z,101468.91
2023-04-20T22:06:56.553Z,101464.50
2023-04-20T22:09:22.789Z,101467.50
2023-04-20T22:11:52.466Z,101468.28
2023-04-20T22:14:18.767Z,101450.94
2023-04-20T22:16:46.121Z,101445.91
2023-04-20T22:19:12.366Z,101436.13
2023-04-20T22:21:38.582Z,101448.31
2023-04-20T22:24:04.864Z,101428.13
2023-04-20T22:26:31.066Z,101427.75
2023-04-20T22:28:57.295Z,101422.94
2023-04-20T22:31:23.588Z,101412.22
2023-04-20T22:33:49.849Z,101408.81
2023-04-20T22:36:16.050Z,101395.25
2023-04-20T22:38:42.303Z,101395.25
2023-04-20T22:41:08.510Z,101394.53
2023-04-20T22:43:34.725Z,101372.97
2023-04-20T22:46:00.929Z,101362.97
2023-04-20T22:48:27.160Z,101357.94
2023-04-20T22:50:53.381Z,101370.72
2023-04-20T22:53:19.619Z,101353.38
2023-04-20T22:55:45.828Z,101360.53
2023-04-20T22:58:12.039Z,101357.13
2023-04-20T23:00:38.327Z,101350.56
2023-04-20T23:03:04.809Z,101337.78
2023-04-20T23:05:31.145Z,101343.97
2023-04-20T23:07:57.362Z,101342.19
2023-04-20T23:10:23.601Z,101345.56
2023-04-20T23:12:49.804Z,101353.34
2023-04-20T23:15:16.018Z,101347.75
2023-04-20T23:17:42.263Z,101345.78
2023-04-20T23:20:08.667Z,101332.94
2023-04-20T23:22:34.983Z,101344.75
2023-04-20T23:25:01.182Z,101342.56
2023-04-20T23:27:27.383Z,101329.81
2023-04-20T23:29:53.596Z,101320.63
2023-04-20T23:32:19.789Z,101315.19
2023-04-20T23:34:45.996Z,101329.78
2023-04-20T23:37:12.209Z,101325.41
2023-04-20T23:39:38.428Z,101316.44
2023-04-20T23:42:04.954Z,101310.84
2023-04-20T23:44:31.155Z,101316.38
2023-04-20T23:46:57.352Z,101323.41
2023-04-20T23:49:23.584Z,101306.59
2023-04-20T23:51:49.784Z,101322.56
2023-04-20T23:54:16.003Z,101328.91
2023-04-20T23:56:42.213Z,101333.69
2023-04-20T23:59:08.428Z,101340.13
